Saco, Maine
Current Conditions -  °F | °C
As of 2:51 PM on Sunday 21 Dec 2014 (Local Time) from KPWM Reporting Station
Scattered Clouds Scattered Clouds  
Wind Chill: 34°   Ceiling: Unl
Heat Index: 34°   Visibility: 10mi
Dew Point: 25°   Wind: 3mph
Humidity: 70%   Direction: 350°N
Pressure: 30.33"   Gusts: NA
Location:  43.5°N, 70.44°W
Report Text: KPWM 211951Z 35003KT 10SM SCT120 SCT200 01/M04 A3033 RMK AO2 SLP272 T00111039
Loading
Personal Weather Stations






























Interactive Weather Map New forecast layout! Learn more

10-Day Weather Forecast

Advertisements
Track Severe Weather on mobile